TAX09JF LFKC-LICR
Flight info
| Callsign | TAX09JF |
|---|---|
| Flight time | N/A |
| Altitude | 39000 |
| Route | CAPCO DCT MIRSA DCT BEGUD DCT GISPA DCT PEPIX DCT AMANO DCT BUDIN DCT FOSQA |
| Aircraft | A320/M-SDE3FGHIRWY/LB1 |
Departure
| Time | 2026-04-27 22:07 |
|---|---|
| Airport | Calvi Sainte Catherine Airport (LFKC) |
Arrival
| Time | N/A |
|---|---|
| Airport | Reggio Calabria Airport (LICR) |
| Time | Latitude | Longitude | Altitude | Speed | Heading |
|---|---|---|---|---|---|
| 2026-04-27 21:46 | 42.52520 | 8.79079 | 225 ft | 0 kts | 300° |
| 2026-04-27 21:59 | 42.52516 | 8.79088 | 225 ft | 4 kts | 299° |
| 2026-04-27 22:00 | 42.52503 | 8.79120 | 226 ft | 4 kts | 292° |
| 2026-04-27 22:00 | 42.52497 | 8.79153 | 226 ft | 4 kts | 247° |
| 2026-04-27 22:00 | 42.52503 | 8.79162 | 226 ft | 1 kts | 179° |
| 2026-04-27 22:00 | 42.52506 | 8.79162 | 228 ft | 3 kts | 179° |
| 2026-04-27 22:02 | 42.52445 | 8.79188 | 231 ft | 16 kts | 124° |
| 2026-04-27 22:03 | 42.52410 | 8.79294 | 233 ft | 8 kts | 166° |
| 2026-04-27 22:03 | 42.52362 | 8.79302 | 237 ft | 12 kts | 178° |
| 2026-04-27 22:03 | 42.52218 | 8.79307 | 247 ft | 29 kts | 179° |
| 2026-04-27 22:03 | 42.52067 | 8.79270 | 256 ft | 12 kts | 201° |
| 2026-04-27 22:04 | 42.52074 | 8.79298 | 255 ft | 8 kts | 29° |
| 2026-04-27 22:04 | 42.52099 | 8.79302 | 254 ft | 0 kts | 357° |
| 2026-04-27 22:06 | 42.52162 | 8.79299 | 250 ft | 42 kts | 359° |
| 2026-04-27 22:07 | 42.52737 | 8.79299 | 211 ft | 118 kts | 360° |
| 2026-04-27 22:07 | 42.53738 | 8.79274 | 374 ft | 154 kts | 359° |
| 2026-04-27 22:07 | 42.54763 | 8.79268 | 1169 ft | 145 kts | 2° |
| 2026-04-27 22:07 | 42.55774 | 8.79300 | 1813 ft | 145 kts | 4° |
| 2026-04-27 22:08 | 42.56842 | 8.79335 | 2199 ft | 164 kts | 0° |
| 2026-04-27 22:08 | 42.58059 | 8.79330 | 2504 ft | 185 kts | 360° |
| 2026-04-27 22:08 | 42.59434 | 8.79316 | 2774 ft | 210 kts | 359° |
| 2026-04-27 22:08 | 42.60981 | 8.79385 | 3160 ft | 236 kts | 11° |
| 2026-04-27 22:09 | 42.62386 | 8.80427 | 3602 ft | 259 kts | 47° |
| 2026-04-27 22:09 | 42.63467 | 8.82445 | 4412 ft | 268 kts | 55° |
| 2026-04-27 22:09 | 42.64563 | 8.84489 | 5373 ft | 272 kts | 52° |
| 2026-04-27 22:09 | 42.65761 | 8.86523 | 6367 ft | 275 kts | 50° |
| 2026-04-27 22:10 | 42.67016 | 8.88504 | 7290 ft | 278 kts | 49° |
| 2026-04-27 22:10 | 42.67897 | 8.89833 | 7933 ft | 281 kts | 48° |
| 2026-04-27 22:10 | 42.69707 | 8.92478 | 9170 ft | 285 kts | 47° |
| 2026-04-27 22:10 | 42.71063 | 8.94421 | 10074 ft | 289 kts | 47° |
| 2026-04-27 22:11 | 42.72485 | 8.96446 | 10583 ft | 307 kts | 47° |
| 2026-04-27 22:11 | 42.74020 | 8.98630 | 10878 ft | 331 kts | 47° |
| 2026-04-27 22:11 | 42.75644 | 9.00947 | 11431 ft | 343 kts | 47° |
| 2026-04-27 22:11 | 42.77273 | 9.03279 | 12160 ft | 348 kts | 47° |
| 2026-04-27 22:12 | 42.78949 | 9.05684 | 12940 ft | 352 kts | 46° |
| 2026-04-27 22:12 | 42.80643 | 9.08122 | 13720 ft | 356 kts | 46° |
| 2026-04-27 22:12 | 42.82353 | 9.10591 | 14410 ft | 361 kts | 46° |
| 2026-04-27 22:12 | 42.84085 | 9.13092 | 15065 ft | 365 kts | 46° |
| 2026-04-27 22:13 | 42.85859 | 9.15663 | 15730 ft | 370 kts | 47° |
| 2026-04-27 22:13 | 42.87357 | 9.18528 | 16384 ft | 375 kts | 60° |
| 2026-04-27 22:13 | 42.88360 | 9.21825 | 17027 ft | 380 kts | 73° |
| 2026-04-27 22:13 | 42.88801 | 9.25390 | 17648 ft | 385 kts | 87° |
| 2026-04-27 22:14 | 42.88633 | 9.29059 | 18263 ft | 390 kts | 99° |
| 2026-04-27 22:14 | 42.88131 | 9.32716 | 18819 ft | 394 kts | 100° |
| 2026-04-27 22:14 | 42.87623 | 9.36404 | 19393 ft | 397 kts | 100° |
| 2026-04-27 22:14 | 42.87111 | 9.40124 | 19964 ft | 400 kts | 100° |
| 2026-04-27 22:15 | 42.86599 | 9.43851 | 20531 ft | 402 kts | 100° |
| 2026-04-27 22:15 | 42.86083 | 9.47615 | 21097 ft | 405 kts | 100° |
| 2026-04-27 22:15 | 42.85561 | 9.51405 | 21644 ft | 408 kts | 100° |
| 2026-04-27 22:15 | 42.85037 | 9.55215 | 22184 ft | 411 kts | 100° |
| 2026-04-27 22:16 | 42.84509 | 9.59053 | 22718 ft | 413 kts | 100° |
| 2026-04-27 22:16 | 42.83978 | 9.62915 | 23243 ft | 416 kts | 100° |
| 2026-04-27 22:16 | 42.83438 | 9.66794 | 23749 ft | 419 kts | 100° |
| 2026-04-27 22:16 | 42.82889 | 9.70705 | 24176 ft | 421 kts | 100° |
| 2026-04-27 22:17 | 42.82213 | 9.74591 | 24594 ft | 424 kts | 107° |
| 2026-04-27 22:17 | 42.81503 | 9.77136 | 24876 ft | 426 kts | 114° |
| 2026-04-27 22:17 | 42.80197 | 9.80775 | 25295 ft | 428 kts | 116° |
| 2026-04-27 22:17 | 42.78862 | 9.84407 | 25722 ft | 431 kts | 118° |
| 2026-04-27 22:18 | 42.77244 | 9.87849 | 26097 ft | 434 kts | 127° |
| 2026-04-27 22:18 | 42.75280 | 9.90991 | 26477 ft | 437 kts | 131° |
| 2026-04-27 22:18 | 42.73265 | 9.94102 | 26872 ft | 439 kts | 130° |
| 2026-04-27 22:18 | 42.71240 | 9.97230 | 27255 ft | 442 kts | 130° |
| 2026-04-27 22:19 | 42.69202 | 10.00377 | 27643 ft | 444 kts | 130° |
| 2026-04-27 22:19 | 42.67154 | 10.03538 | 28025 ft | 447 kts | 130° |
| 2026-04-27 22:19 | 42.65094 | 10.06714 | 28400 ft | 449 kts | 130° |
| 2026-04-27 22:19 | 42.63021 | 10.09906 | 28761 ft | 452 kts | 130° |
| 2026-04-27 22:20 | 42.60939 | 10.13108 | 29115 ft | 454 kts | 130° |
| 2026-04-27 22:20 | 42.58843 | 10.16328 | 29453 ft | 456 kts | 130° |
| 2026-04-27 22:20 | 42.56736 | 10.19558 | 29789 ft | 458 kts | 130° |
| 2026-04-27 22:20 | 42.54617 | 10.22801 | 30131 ft | 460 kts | 130° |
| 2026-04-27 22:21 | 42.52491 | 10.26054 | 30418 ft | 462 kts | 130° |
| 2026-04-27 22:21 | 42.50355 | 10.29322 | 30690 ft | 464 kts | 130° |
| 2026-04-27 22:21 | 42.48211 | 10.32601 | 30965 ft | 466 kts | 130° |
| 2026-04-27 22:21 | 42.46067 | 10.35880 | 31334 ft | 465 kts | 130° |
| 2026-04-27 22:22 | 42.43927 | 10.39150 | 31722 ft | 464 kts | 130° |
| 2026-04-27 22:22 | 42.41779 | 10.42422 | 32082 ft | 464 kts | 130° |
| 2026-04-27 22:22 | 42.39642 | 10.45671 | 32449 ft | 463 kts | 130° |
| 2026-04-27 22:22 | 42.37500 | 10.48926 | 32818 ft | 463 kts | 130° |
| 2026-04-27 22:23 | 42.35363 | 10.52173 | 33175 ft | 462 kts | 130° |
| 2026-04-27 22:23 | 42.33196 | 10.55463 | 33552 ft | 462 kts | 130° |
| 2026-04-27 22:23 | 42.31087 | 10.58659 | 33911 ft | 461 kts | 130° |
| 2026-04-27 22:23 | 42.28923 | 10.61936 | 34248 ft | 461 kts | 130° |
| 2026-04-27 22:24 | 42.26785 | 10.65170 | 34547 ft | 461 kts | 131° |
| 2026-04-27 22:24 | 42.24647 | 10.68397 | 34847 ft | 461 kts | 131° |
| 2026-04-27 22:24 | 42.22509 | 10.71614 | 35133 ft | 461 kts | 131° |
| 2026-04-27 22:24 | 42.20363 | 10.74845 | 35409 ft | 462 kts | 131° |
| 2026-04-27 22:25 | 42.18224 | 10.78070 | 35674 ft | 462 kts | 131° |
| 2026-04-27 22:25 | 42.16081 | 10.81299 | 35934 ft | 462 kts | 131° |
| 2026-04-27 22:25 | 42.13934 | 10.84524 | 36192 ft | 462 kts | 131° |
| 2026-04-27 22:25 | 42.11799 | 10.87723 | 36442 ft | 462 kts | 131° |
| 2026-04-27 22:26 | 42.09634 | 10.90965 | 36690 ft | 462 kts | 131° |
| 2026-04-27 22:26 | 42.07489 | 10.94175 | 36921 ft | 463 kts | 131° |
| 2026-04-27 22:26 | 42.05327 | 10.97407 | 37099 ft | 464 kts | 131° |
| 2026-04-27 22:27 | 42.01019 | 11.03835 | 37128 ft | 464 kts | 131° |
| 2026-04-27 22:27 | 41.96684 | 11.10293 | 37128 ft | 463 kts | 132° |
| 2026-04-27 22:28 | 41.92364 | 11.16716 | 37128 ft | 463 kts | 132° |
| 2026-04-27 22:28 | 41.88033 | 11.23126 | 37128 ft | 463 kts | 132° |
| 2026-04-27 22:29 | 41.83697 | 11.29530 | 37125 ft | 464 kts | 132° |
| 2026-04-27 22:29 | 41.79350 | 11.35896 | 37130 ft | 464 kts | 133° |
| 2026-04-27 22:30 | 41.74780 | 11.42073 | 37131 ft | 464 kts | 135° |
| 2026-04-27 22:30 | 41.70184 | 11.48023 | 37135 ft | 465 kts | 136° |
| 2026-04-27 22:31 | 41.65503 | 11.54123 | 37137 ft | 465 kts | 135° |
| 2026-04-27 22:31 | 41.61065 | 11.59985 | 37139 ft | 465 kts | 135° |
| 2026-04-27 22:32 | 41.56547 | 11.65949 | 37130 ft | 465 kts | 135° |
| 2026-04-27 22:32 | 41.51911 | 11.72078 | 37137 ft | 465 kts | 135° |
| 2026-04-27 22:33 | 41.47297 | 11.78135 | 37136 ft | 465 kts | 135° |
| 2026-04-27 22:33 | 41.42673 | 11.84176 | 37136 ft | 466 kts | 135° |
| 2026-04-27 22:34 | 41.38045 | 11.90213 | 37137 ft | 466 kts | 135° |
| 2026-04-27 22:34 | 41.33411 | 11.96265 | 37128 ft | 466 kts | 136° |
| 2026-04-27 22:35 | 41.28778 | 12.02296 | 37132 ft | 467 kts | 136° |
| 2026-04-27 22:35 | 41.24133 | 12.08322 | 37138 ft | 467 kts | 136° |
| 2026-04-27 22:36 | 41.19520 | 12.14300 | 37140 ft | 467 kts | 136° |
| 2026-04-27 22:36 | 41.14683 | 12.20128 | 37133 ft | 465 kts | 144° |
| 2026-04-27 22:37 | 41.09454 | 12.25105 | 37121 ft | 466 kts | 145° |
| 2026-04-27 22:37 | 41.04152 | 12.30150 | 37119 ft | 466 kts | 145° |
| 2026-04-27 22:38 | 40.98905 | 12.35140 | 37121 ft | 466 kts | 145° |
| 2026-04-27 22:38 | 40.93633 | 12.40141 | 37124 ft | 467 kts | 145° |
| 2026-04-27 22:39 | 40.88353 | 12.45146 | 37126 ft | 467 kts | 145° |
| 2026-04-27 22:39 | 40.83113 | 12.50091 | 37125 ft | 467 kts | 145° |
| 2026-04-27 22:40 | 40.77805 | 12.55084 | 37125 ft | 468 kts | 145° |
| 2026-04-27 22:40 | 40.72517 | 12.60057 | 37130 ft | 468 kts | 145° |
| 2026-04-27 22:41 | 40.67176 | 12.65071 | 37132 ft | 468 kts | 145° |
| 2026-04-27 22:41 | 40.61910 | 12.70014 | 37125 ft | 469 kts | 146° |
| 2026-04-27 22:42 | 40.56907 | 12.74697 | 37127 ft | 469 kts | 146° |
| 2026-04-27 22:42 | 40.53176 | 12.77837 | 37202 ft | 455 kts | 159° |
| 2026-04-27 22:42 | 40.50834 | 12.78995 | 37742 ft | 442 kts | 161° |